createdAt,value
2022-09-03T00:00:05.055Z,19.00
2022-09-03T00:05:45.719Z,19.20
2022-09-03T00:11:14.605Z,19.30
2022-09-03T00:16:21.838Z,19.30
2022-09-03T00:21:38.127Z,19.20
2022-09-03T00:26:45.255Z,19.30
2022-09-03T00:32:18.669Z,19.40
2022-09-03T00:37:20.923Z,19.40
2022-09-03T00:42:43.729Z,19.40
2022-09-03T00:48:09.240Z,19.40
2022-09-03T00:53:24.528Z,19.10
2022-09-03T00:58:29.910Z,19.10
2022-09-03T01:03:51.109Z,19.30
2022-09-03T01:09:02.255Z,19.40
2022-09-03T01:14:23.042Z,19.30
2022-09-03T01:19:40.203Z,19.30
2022-09-03T01:25:10.648Z,19.20
2022-09-03T01:30:23.970Z,19.30
2022-09-03T01:35:44.023Z,19.20
2022-09-03T01:41:38.688Z,19.10
2022-09-03T01:46:45.514Z,19.40
2022-09-03T01:51:59.816Z,19.00
2022-09-03T01:57:35.411Z,19.00
2022-09-03T02:02:43.332Z,19.10
2022-09-03T02:08:05.160Z,18.90
2022-09-03T02:13:31.887Z,19.40
2022-09-03T02:18:38.579Z,19.20
2022-09-03T02:23:41.994Z,19.20
2022-09-03T02:28:44.682Z,19.20
2022-09-03T02:33:49.177Z,19.20
2022-09-03T02:38:51.539Z,19.00
2022-09-03T02:44:14.096Z,19.30
2022-09-03T02:49:16.401Z,19.20
2022-09-03T02:54:21.082Z,19.10
2022-09-03T02:59:23.453Z,19.10
2022-09-03T03:04:25.710Z,18.90
2022-09-03T03:09:27.800Z,19.40
2022-09-03T03:14:30.006Z,18.30
2022-09-03T03:19:32.175Z,19.00
2022-09-03T03:24:34.334Z,18.90
2022-09-03T03:29:36.786Z,18.90
2022-09-03T03:34:39.931Z,19.10
2022-09-03T03:39:42.109Z,18.90
2022-09-03T03:44:44.301Z,18.90
2022-09-03T03:49:46.542Z,18.90
2022-09-03T03:54:50.125Z,18.80
2022-09-03T03:59:52.233Z,18.70
2022-09-03T04:04:54.794Z,18.90
2022-09-03T04:09:56.943Z,18.80
2022-09-03T04:14:59.048Z,18.90
2022-09-03T04:20:01.469Z,18.80
2022-09-03T04:25:03.975Z,18.90
2022-09-03T04:30:06.809Z,19.10
2022-09-03T04:35:09.847Z,19.10
2022-09-03T04:40:12.037Z,19.40
2022-09-03T04:45:18.599Z,19.00
2022-09-03T04:50:20.721Z,19.20
2022-09-03T04:55:23.338Z,19.40
2022-09-03T05:00:25.543Z,19.40
2022-09-03T05:05:27.775Z,19.50
2022-09-03T05:10:31.808Z,19.40
2022-09-03T05:15:33.998Z,19.80
2022-09-03T05:20:36.107Z,19.40
2022-09-03T05:25:38.338Z,19.40
2022-09-03T05:30:40.444Z,19.30
2022-09-03T05:35:42.724Z,19.40
2022-09-03T05:40:44.945Z,19.40
2022-09-03T05:45:47.354Z,19.40
2022-09-03T05:50:49.613Z,19.40
2022-09-03T05:56:02.957Z,19.50
2022-09-03T06:01:15.321Z,19.90
2022-09-03T06:06:17.446Z,19.70
2022-09-03T06:11:19.675Z,19.80
2022-09-03T06:16:29.008Z,19.80
2022-09-03T06:21:35.011Z,19.90
2022-09-03T06:26:37.428Z,19.90
2022-09-03T06:31:40.673Z,19.90
2022-09-03T06:36:42.908Z,20.10
2022-09-03T06:41:45.797Z,19.90
2022-09-03T06:46:48.455Z,19.90
2022-09-03T06:51:50.639Z,19.90
2022-09-03T06:56:52.752Z,20.10
2022-09-03T07:01:55.200Z,20.00
2022-09-03T07:06:57.620Z,20.10
2022-09-03T07:11:59.695Z,20.00
2022-09-03T07:17:01.881Z,20.10
2022-09-03T07:22:04.977Z,20.10
2022-09-03T07:27:12.993Z,20.30
2022-09-03T07:32:17.026Z,20.20
2022-09-03T07:37:19.216Z,20.30
2022-09-03T07:42:21.324Z,20.30
2022-09-03T07:47:25.184Z,20.30
2022-09-03T07:52:29.224Z,20.40
2022-09-03T07:57:31.418Z,20.50
2022-09-03T08:02:33.766Z,20.50
2022-09-03T08:07:35.923Z,20.60
2022-09-03T08:12:38.987Z,20.80
2022-09-03T08:17:44.506Z,20.70
2022-09-03T08:22:46.810Z,20.70
2022-09-03T08:27:48.968Z,20.70
2022-09-03T08:32:51.947Z,20.70
2022-09-03T08:37:56.823Z,20.60
2022-09-03T08:43:18.710Z,20.80
2022-09-03T08:48:25.907Z,20.90
2022-09-03T08:53:44.358Z,20.80
2022-09-03T08:58:46.653Z,21.30
2022-09-03T09:04:22.523Z,21.30
2022-09-03T09:09:39.060Z,21.30
2022-09-03T09:14:50.829Z,21.60
2022-09-03T09:20:25.153Z,21.60
2022-09-03T09:25:27.454Z,22.00
2022-09-03T09:30:31.997Z,21.70
2022-09-03T09:35:35.024Z,22.20
2022-09-03T09:40:45.711Z,22.50
2022-09-03T09:45:50.444Z,22.60
2022-09-03T09:51:11.895Z,22.90
2022-09-03T09:56:22.658Z,23.00
2022-09-03T10:01:30.232Z,23.10
2022-09-03T10:06:50.856Z,23.30
2022-09-03T10:12:04.257Z,23.30
2022-09-03T10:17:19.959Z,23.60
2022-09-03T10:22:26.121Z,23.90
2022-09-03T10:27:33.807Z,24.40
2022-09-03T10:32:48.404Z,24.80
2022-09-03T10:38:02.877Z,24.90
2022-09-03T10:43:07.695Z,25.00
2022-09-03T10:48:40.714Z,25.20
2022-09-03T10:54:27.159Z,25.30
2022-09-03T10:59:35.491Z,25.30
2022-09-03T11:04:46.770Z,25.60
2022-09-03T11:10:11.269Z,25.50
2022-09-03T11:15:30.845Z,25.60
2022-09-03T11:20:34.160Z,26.00
2022-09-03T11:25:42.642Z,26.00
2022-09-03T11:31:17.689Z,26.20
2022-09-03T11:36:32.789Z,26.30
2022-09-03T11:41:38.640Z,26.30
2022-09-03T11:46:41.549Z,26.30
2022-09-03T11:51:44.090Z,26.10
2022-09-03T11:56:50.396Z,26.10
2022-09-03T12:02:07.238Z,26.60
2022-09-03T12:07:12.535Z,27.10
2022-09-03T12:12:49.436Z,27.70
2022-09-03T12:18:18.093Z,28.30
2022-09-03T12:23:42.107Z,28.60
2022-09-03T12:28:49.440Z,28.70
2022-09-03T12:33:56.203Z,28.40
2022-09-03T12:39:11.975Z,28.50
2022-09-03T12:44:15.222Z,28.50
2022-09-03T12:49:33.658Z,28.50
2022-09-03T12:54:43.916Z,28.90
2022-09-03T12:59:58.461Z,28.80
2022-09-03T13:05:01.412Z,29.20
2022-09-03T13:10:08.134Z,29.60
2022-09-03T13:15:19.848Z,30.00
2022-09-03T13:20:43.859Z,30.40
2022-09-03T13:26:18.460Z,30.80
2022-09-03T13:31:39.785Z,31.20
2022-09-03T13:36:58.821Z,31.60
2022-09-03T13:42:18.212Z,32.10
2022-09-03T13:48:04.337Z,32.70
2022-09-03T13:53:22.813Z,33.00
2022-09-03T13:58:37.506Z,33.10
2022-09-03T14:03:57.176Z,33.60
2022-09-03T14:08:59.282Z,34.50
2022-09-03T14:14:38.629Z,35.50
2022-09-03T14:19:46.411Z,36.60
2022-09-03T14:25:24.193Z,37.50
2022-09-03T14:30:58.715Z,38.20
2022-09-03T14:36:31.023Z,38.40
2022-09-03T14:42:03.280Z,37.70
2022-09-03T14:47:35.499Z,36.60
2022-09-03T14:53:06.852Z,35.50
2022-09-03T14:58:11.997Z,34.50
2022-09-03T15:03:48.199Z,33.50
2022-09-03T15:09:06.137Z,32.60
2022-09-03T15:14:14.558Z,31.70
2022-09-03T15:19:27.879Z,31.00
2022-09-03T15:24:29.979Z,30.40
2022-09-03T15:29:38.031Z,29.90
2022-09-03T15:35:03.970Z,29.40
2022-09-03T15:40:27.561Z,28.90
2022-09-03T15:45:39.359Z,28.50
2022-09-03T15:50:57.082Z,28.10
2022-09-03T15:56:14.736Z,27.70
2022-09-03T16:01:27.817Z,27.40
2022-09-03T16:06:44.573Z,27.00
2022-09-03T16:12:12.587Z,26.60
2022-09-03T16:17:35.952Z,26.60
2022-09-03T16:22:56.483Z,26.30
2022-09-03T16:28:11.479Z,26.20
2022-09-03T16:33:28.482Z,26.00
2022-09-03T16:38:45.676Z,26.20
2022-09-03T16:43:54.247Z,25.60
2022-09-03T16:49:06.054Z,25.50
2022-09-03T16:54:20.045Z,25.20
2022-09-03T16:59:34.556Z,25.10
2022-09-03T17:04:59.151Z,24.80
2022-09-03T17:10:19.380Z,24.90
2022-09-03T17:15:43.853Z,24.90
2022-09-03T17:21:15.539Z,24.80
2022-09-03T17:26:47.822Z,25.00
2022-09-03T17:32:04.579Z,25.00
2022-09-03T17:37:44.776Z,24.90
2022-09-03T17:43:08.036Z,24.90
2022-09-03T17:48:31.456Z,24.80
2022-09-03T17:53:38.420Z,24.40
2022-09-03T17:59:01.887Z,24.60
2022-09-03T18:04:22.767Z,24.00
2022-09-03T18:09:39.942Z,24.00
2022-09-03T18:14:56.733Z,23.80
2022-09-03T18:20:33.401Z,23.60
2022-09-03T18:25:58.345Z,23.70
2022-09-03T18:31:19.309Z,23.20
2022-09-03T18:36:40.847Z,23.00
2022-09-03T18:42:12.251Z,22.90
2022-09-03T18:48:16.358Z,22.70
2022-09-03T18:54:50.624Z,22.60
2022-09-03T19:00:28.743Z,22.40
2022-09-03T19:05:54.112Z,22.20
2022-09-03T19:11:33.486Z,22.10
2022-09-03T19:16:57.420Z,21.70
2022-09-03T19:22:20.803Z,21.50
2022-09-03T19:28:21.265Z,21.80
2022-09-03T19:34:12.099Z,21.60
2022-09-03T19:39:47.839Z,21.50
2022-09-03T19:45:27.567Z,21.60
2022-09-03T19:50:52.394Z,21.20
2022-09-03T19:56:15.425Z,21.40
2022-09-03T20:01:37.661Z,21.10
2022-09-03T20:06:58.652Z,20.70
2022-09-03T20:12:10.049Z,20.80
2022-09-03T20:17:25.657Z,21.00
2022-09-03T20:22:39.638Z,21.10
2022-09-03T20:28:05.761Z,21.00
2022-09-03T20:33:55.022Z,20.90
2022-09-03T20:39:34.437Z,20.80
2022-09-03T20:45:08.425Z,20.50
2022-09-03T20:50:43.825Z,20.70
2022-09-03T20:55:50.638Z,20.70
2022-09-03T21:01:23.247Z,20.40
2022-09-03T21:06:42.427Z,20.30
2022-09-03T21:12:08.600Z,20.20
2022-09-03T21:17:52.431Z,20.30
2022-09-03T21:22:57.871Z,20.30
2022-09-03T21:28:07.501Z,20.20
2022-09-03T21:33:18.893Z,20.20
2022-09-03T21:38:25.562Z,20.10
2022-09-03T21:43:52.452Z,20.10
2022-09-03T21:49:01.239Z,19.90
2022-09-03T21:54:36.543Z,19.90
2022-09-03T21:59:38.716Z,19.70
2022-09-03T22:04:43.709Z,19.80
2022-09-03T22:10:01.434Z,19.80
2022-09-03T22:15:13.045Z,19.50
2022-09-03T22:20:17.299Z,19.70
2022-09-03T22:25:41.805Z,19.80
2022-09-03T22:30:54.807Z,19.80
2022-09-03T22:36:08.589Z,19.60
2022-09-03T22:41:35.961Z,19.60
2022-09-03T22:46:46.403Z,20.10
2022-09-03T22:51:54.362Z,19.50
2022-09-03T22:57:01.156Z,19.50
2022-09-03T23:02:23.886Z,19.20
2022-09-03T23:07:56.101Z,19.10
2022-09-03T23:13:28.271Z,19.60
2022-09-03T23:18:34.576Z,19.40
2022-09-03T23:23:46.867Z,19.40
2022-09-03T23:28:54.658Z,19.30
2022-09-03T23:33:57.210Z,19.30
2022-09-03T23:39:42.680Z,19.30
2022-09-03T23:45:03.456Z,19.40
2022-09-03T23:50:11.687Z,19.40
2022-09-03T23:55:33.375Z,19.30
